Time;durP1;ratioP1;P1;durP2;ratioP2;P2;SDS_P1;SDS_P2;PMS_P1;PMS_P2;Temp;Humidity;BMP_temperature;BMP_pressure;BME280_temperature;BME280_humidity;BME280_pressure;Samples;Min_cycle;Max_cycle;Signal;HPM_P1;HPM_P2
2021/06/16 00:01:13;;;;;;;15.45;10.78;;;;;;;18.79;63.59;100478.40;2026606;87;27529;-59
2021/06/16 00:04:14;;;;;;;18.67;12.43;;;;;;;18.75;63.72;100481.02;2064235;85;28748;-58
2021/06/16 00:07:16;;;;;;;16.80;12.18;;;;;;;18.68;64.02;100483.84;2072770;85;31075;-58
2021/06/16 00:10:23;;;;;;;15.00;11.80;;;;;;;18.61;64.03;100491.63;2051983;86;33014;-59
2021/06/16 00:13:27;;;;;;;15.95;12.03;;;;;;;18.54;64.07;100484.95;2045993;86;30194;-61
2021/06/16 00:16:28;;;;;;;13.75;11.50;;;;;;;18.49;64.23;100493.98;2065044;85;27574;-60
2021/06/16 00:19:30;;;;;;;14.13;12.35;;;;;;;18.42;64.46;100493.61;2051591;86;28739;-59
2021/06/16 00:22:32;;;;;;;17.65;13.30;;;;;;;18.37;64.80;100494.45;2090289;85;31058;-61
2021/06/16 00:25:35;;;;;;;16.35;12.30;;;;;;;18.32;65.09;100483.98;2046394;86;33109;-60
2021/06/16 00:28:39;;;;;;;21.00;13.28;;;;;;;18.19;65.25;100463.73;2080436;85;29415;-60
2021/06/16 00:31:41;;;;;;;17.92;12.75;;;;;;;18.21;65.49;100476.69;2064323;86;27516;-61
2021/06/16 00:34:43;;;;;;;18.70;13.68;;;;;;;18.18;65.34;100478.28;2024072;88;28763;-60
2021/06/16 00:37:46;;;;;;;20.50;14.53;;;;;;;18.15;65.63;100480.38;2064312;85;32014;-60
2021/06/16 00:40:48;;;;;;;20.50;14.45;;;;;;;18.11;65.99;100482.48;2064122;86;33727;-61
2021/06/16 00:43:50;;;;;;;22.73;13.68;;;;;;;18.00;66.08;100469.77;2024039;88;30186;-59
2021/06/16 00:46:52;;;;;;;22.22;13.80;;;;;;;18.00;66.18;100472.48;2072959;85;27497;-61
2021/06/16 00:49:54;;;;;;;18.65;13.65;;;;;;;17.81;66.45;100450.47;2090637;85;28651;-60
2021/06/16 00:52:56;;;;;;;19.65;14.00;;;;;;;17.81;66.45;100450.47;2089986;85;31329;-60
2021/06/16 00:55:58;;;;;;;18.82;13.62;;;;;;;17.79;66.42;100453.78;2046654;87;33031;-60
2021/06/16 00:59:00;;;;;;;18.55;13.60;;;;;;;17.84;66.58;100475.47;2052772;85;29394;-60
2021/06/16 01:02:04;;;;;;;25.23;13.40;;;;;;;17.80;66.79;100482.10;2047248;87;27436;-61
2021/06/16 01:05:08;;;;;;;21.12;13.88;;;;;;;17.75;66.72;100480.27;2091288;85;28741;-60
2021/06/16 01:08:15;;;;;;;22.55;14.45;;;;;;;17.58;66.66;100459.87;2052876;86;31686;-61
2021/06/16 01:11:18;;;;;;;19.27;14.07;;;;;;;17.67;66.88;100480.86;2091287;85;33035;-60
2021/06/16 01:14:24;;;;;;;19.57;15.70;;;;;;;17.52;67.21;100467.98;2047165;86;29396;-61
2021/06/16 01:17:37;;;;;;;22.22;15.40;;;;;;;17.60;67.37;100491.30;2091197;85;27585;-61
2021/06/16 01:20:41;;;;;;;22.02;15.38;;;;;;;17.58;67.71;100499.15;2052761;86;28809;-61
2021/06/16 01:24:03;;;;;;;20.37;15.17;;;;;;;17.54;67.81;100494.97;2070179;85;31096;-61
2021/06/16 01:27:06;;;;;;;19.70;16.27;;;;;;;17.51;68.26;100491.98;2087891;85;33104;-60
2021/06/16 01:30:10;;;;;;;24.02;18.15;;;;;;;17.50;68.22;100486.70;2087904;85;29402;-60
2021/06/16 01:33:14;;;;;;;27.42;15.95;;;;;;;17.49;68.38;100488.52;2088078;85;27494;-60
2021/06/16 01:36:16;;;;;;;24.05;17.77;;;;;;;17.49;68.45;100492.59;2095377;84;32208;-60
2021/06/16 01:39:22;;;;;;;22.80;17.37;;;;;;;17.50;68.56;100490.75;2061655;86;31692;-61
2021/06/16 01:42:27;;;;;;;20.75;16.62;;;;;;;17.50;68.62;100486.70;2087864;84;33062;-61
2021/06/16 01:45:33;;;;;;;24.18;17.20;;;;;;;17.52;68.66;100495.58;2087597;85;34636;-61
2021/06/16 01:48:37;;;;;;;21.65;17.67;;;;;;;17.53;69.13;100494.09;2061749;86;27458;-61
2021/06/16 01:51:41;;;;;;;22.27;17.60;;;;;;;17.54;68.99;100490.40;2088030;84;29198;-61
2021/06/16 01:54:43;;;;;;;23.67;17.77;;;;;;;17.57;69.15;100493.36;2087869;85;31102;-61
2021/06/16 01:57:46;;;;;;;25.27;18.67;;;;;;;17.60;69.39;100493.12;2087870;85;32973;-61
2021/06/16 02:00:52;;;;;;;26.93;17.92;;;;;;;17.66;69.43;100498.09;2087854;85;29407;-60
2021/06/16 02:03:54;;;;;;;23.77;17.17;;;;;;;17.66;69.43;100498.09;2087983;85;27469;-60
2021/06/16 02:07:16;;;;;;;22.27;17.32;;;;;;;17.57;69.37;100472.56;2095398;84;28747;-60
2021/06/16 02:10:20;;;;;;;22.95;16.90;;;;;;;17.60;69.42;100470.98;2087869;85;31126;-60
2021/06/16 02:13:42;;;;;;;21.25;17.35;;;;;;;17.75;69.38;100489.23;2061690;86;33044;-60
2021/06/16 02:16:55;;;;;;;24.67;17.25;;;;;;;17.79;69.61;100487.66;2087864;85;29437;-60
2021/06/16 02:19:57;;;;;;;20.57;15.40;;;;;;;17.83;69.50;100490.00;2087925;85;27456;-61
2021/06/16 02:23:00;;;;;;;24.50;17.12;;;;;;;17.83;69.50;100490.00;2087725;85;28697;-60
2021/06/16 02:26:03;;;;;;;21.37;16.73;;;;;;;17.83;69.29;100494.06;2087852;85;31140;-60
2021/06/16 02:29:10;;;;;;;20.15;16.40;;;;;;;17.81;69.27;100501.95;2087800;85;33052;-59
2021/06/16 02:32:12;;;;;;;22.22;16.12;;;;;;;17.81;69.27;100501.95;2087867;85;29444;-61
2021/06/16 02:35:16;;;;;;;22.85;16.93;;;;;;;17.76;69.30;100499.09;2066900;86;27533;-60
2021/06/16 02:38:22;;;;;;;21.85;17.20;;;;;;;17.76;69.30;100499.09;2087845;85;29294;-60
2021/06/16 02:41:24;;;;;;;20.45;15.95;;;;;;;17.76;69.73;100507.73;2071949;85;31274;-60
2021/06/16 02:44:28;;;;;;;24.12;17.42;;;;;;;17.72;69.62;100504.38;2087799;85;33056;-60
2021/06/16 02:47:32;;;;;;;22.73;18.33;;;;;;;17.70;69.62;100506.84;2087774;85;29453;-60
2021/06/16 02:50:36;;;;;;;20.88;16.15;;;;;;;17.70;69.65;100513.14;2066867;86;27763;-61
2021/06/16 02:53:41;;;;;;;28.57;21.83;;;;;;;17.68;69.73;100507.44;2071449;85;28748;-61
2021/06/16 02:56:44;;;;;;;27.32;21.70;;;;;;;17.66;69.78;100506.22;2087840;85;31104;-61
2021/06/16 02:59:52;;;;;;;22.62;15.93;;;;;;;17.64;69.76;100507.30;2087809;85;33667;-61
2021/06/16 03:02:54;;;;;;;21.82;15.80;;;;;;;17.62;69.56;100507.42;2087867;85;29412;-59
2021/06/16 03:05:58;;;;;;;21.82;17.05;;;;;;;17.61;69.56;100511.99;2061942;86;27462;-61
2021/06/16 03:09:01;;;;;;;21.33;16.42;;;;;;;17.60;69.77;100507.55;2088238;85;28781;-60
2021/06/16 03:12:04;;;;;;;21.80;17.30;;;;;;;17.61;69.78;100508.41;2061736;86;31099;-60
2021/06/16 03:15:08;;;;;;;26.85;18.20;;;;;;;17.61;69.90;100509.28;2087960;85;33131;-59
2021/06/16 03:18:10;;;;;;;25.10;17.73;;;;;;;17.64;69.99;100514.06;2087910;85;29303;-60
2021/06/16 03:21:14;;;;;;;24.98;18.50;;;;;;;17.56;69.80;100492.98;2088095;85;27466;-60
2021/06/16 03:24:21;;;;;;;23.92;17.17;;;;;;;17.56;69.80;100492.98;2071138;85;28755;-60
2021/06/16 03:27:23;;;;;;;22.52;18.30;;;;;;;17.72;70.11;100509.80;2047232;87;31257;-61
2021/06/16 03:30:26;;;;;;;22.52;17.32;;;;;;;17.79;70.09;100515.60;2088851;85;33064;-59
2021/06/16 03:33:28;;;;;;;23.80;17.50;;;;;;;17.88;70.05;100518.09;2091073;85;29543;-61
2021/06/16 03:36:31;;;;;;;22.55;17.05;;;;;;;17.95;70.27;100518.01;2052952;85;27478;-60
2021/06/16 03:39:34;;;;;;;27.02;18.02;;;;;;;18.04;70.08;100515.95;2052855;86;28804;-60
2021/06/16 03:42:37;;;;;;;25.25;16.67;;;;;;;18.16;70.00;100511.94;2091331;85;31122;-60
2021/06/16 03:45:41;;;;;;;32.03;23.18;;;;;;;18.28;69.83;100512.83;2047203;86;32991;-60
2021/06/16 03:48:44;;;;;;;19.35;16.42;;;;;;;18.42;69.71;100520.73;2091358;85;29434;-59
2021/06/16 03:51:47;;;;;;;21.93;15.83;;;;;;;18.58;69.46;100514.08;2047310;86;27531;-61
2021/06/16 03:54:50;;;;;;;19.20;14.63;;;;;;;18.73;69.34;100514.20;2091343;85;28814;-59
2021/06/16 03:57:52;;;;;;;19.60;13.98;;;;;;;18.85;68.94;100516.42;2091442;85;31109;-59
2021/06/16 04:00:55;;;;;;;18.67;14.85;;;;;;;18.96;68.77;100524.58;2087562;85;33033;-60
2021/06/16 04:03:57;;;;;;;16.27;13.70;;;;;;;19.08;68.44;100521.84;2047212;87;29405;-60
2021/06/16 04:07:01;;;;;;;18.67;14.93;;;;;;;19.17;68.14;100525.65;2091564;85;27434;-60
2021/06/16 04:10:06;;;;;;;16.35;13.08;;;;;;;19.25;68.00;100527.25;2091138;85;28820;-60
2021/06/16 04:13:08;;;;;;;18.77;13.25;;;;;;;19.33;67.75;100524.74;2047179;86;31114;-61
2021/06/16 04:16:11;;;;;;;17.23;12.23;;;;;;;19.44;67.66;100526.06;2091112;85;33002;-59
2021/06/16 04:19:13;;;;;;;18.37;13.10;;;;;;;19.54;67.18;100527.52;2047078;87;29398;-59
2021/06/16 04:22:16;;;;;;;16.10;11.43;;;;;;;19.65;66.83;100531.20;2091362;85;27469;-59
2021/06/16 04:25:19;;;;;;;16.15;11.78;;;;;;;19.69;66.47;100528.59;2088509;85;28743;-67
2021/06/16 04:28:21;;;;;;;17.27;11.43;;;;;;;19.74;66.16;100533.13;2061677;86;31217;-66
2021/06/16 04:31:23;;;;;;;13.85;11.40;;;;;;;19.83;66.10;100529.64;2087915;85;33177;-65
2021/06/16 04:34:25;;;;;;;12.60;11.15;;;;;;;19.94;65.74;100531.95;2087961;85;29403;-60
2021/06/16 04:37:27;;;;;;;14.43;12.25;;;;;;;20.05;65.65;100531.89;2088032;85;27465;-60
2021/06/16 04:40:30;;;;;;;15.48;11.05;;;;;;;20.21;65.28;100536.00;2087927;85;28804;-61
2021/06/16 04:43:32;;;;;;;15.15;11.73;;;;;;;20.37;64.86;100533.67;2087929;85;31086;-61
2021/06/16 04:46:34;;;;;;;17.95;10.32;;;;;;;20.59;64.43;100538.11;2061643;86;33005;-59
2021/06/16 04:49:40;;;;;;;12.88;9.60;;;;;;;21.11;64.57;100537.16;2087917;85;29434;-60
2021/06/16 04:52:43;;;;;;;15.25;10.70;;;;;;;21.91;63.99;100537.16;2088009;85;27631;-60
2021/06/16 04:55:45;;;;;;;13.78;9.33;;;;;;;22.69;62.20;100536.64;2087598;85;28820;-60
2021/06/16 04:58:48;;;;;;;13.13;10.65;;;;;;;23.38;61.52;100547.28;2087919;85;31099;-61
2021/06/16 05:01:51;;;;;;;13.65;9.85;;;;;;;24.05;58.93;100543.66;2087750;85;33045;-67
2021/06/16 05:04:53;;;;;;;14.73;10.13;;;;;;;24.50;58.27;100547.25;2088062;85;29523;-68
2021/06/16 05:07:56;;;;;;;14.00;9.35;;;;;;;24.99;57.84;100545.81;2061730;86;27458;-65
2021/06/16 05:10:58;;;;;;;13.93;9.55;;;;;;;25.47;56.74;100541.55;2087942;85;28732;-60
2021/06/16 05:14:01;;;;;;;16.35;10.03;;;;;;;25.99;55.84;100548.28;2087916;85;31142;-61
2021/06/16 05:17:04;;;;;;;16.37;10.53;;;;;;;26.43;54.59;100550.70;2061610;86;32981;-62
2021/06/16 05:20:10;;;;;;;12.85;9.18;;;;;;;27.02;53.62;100550.05;2087849;85;29500;-61
2021/06/16 05:23:12;;;;;;;11.28;8.73;;;;;;;27.60;52.72;100550.09;2087998;85;27470;-62
2021/06/16 05:26:24;;;;;;;13.68;9.70;;;;;;;28.11;51.88;100549.23;2087444;85;28733;-62
2021/06/16 05:29:27;;;;;;;10.30;9.23;;;;;;;28.53;49.62;100546.41;2087777;85;31251;-62
2021/06/16 05:32:30;;;;;;;12.78;9.00;;;;;;;28.72;49.18;100544.98;2087900;85;32899;-61
2021/06/16 05:35:32;;;;;;;12.63;9.50;;;;;;;28.74;48.86;100547.05;2087919;85;29507;-62
2021/06/16 05:38:35;;;;;;;15.03;9.40;;;;;;;28.93;48.26;100542.89;2087980;85;27585;-62
2021/06/16 05:41:37;;;;;;;11.87;9.47;;;;;;;29.05;47.43;100545.15;2088107;85;28733;-62
2021/06/16 05:44:39;;;;;;;13.68;9.65;;;;;;;29.35;46.79;100543.23;2087740;85;31138;-61
2021/06/16 05:47:42;;;;;;;12.70;9.75;;;;;;;29.55;45.95;100548.97;2070943;85;33029;-62
2021/06/16 05:50:44;;;;;;;13.13;10.20;;;;;;;29.64;45.42;100548.31;2087856;85;29407;-61
2021/06/16 05:53:47;;;;;;;13.78;9.80;;;;;;;29.71;45.07;100551.15;2087966;85;27488;-62
2021/06/16 05:56:50;;;;;;;14.58;9.78;;;;;;;29.87;44.85;100554.16;2087574;84;28806;-63
2021/06/16 05:59:52;;;;;;;11.65;9.33;;;;;;;30.06;44.26;100549.05;2087864;84;31104;-61
2021/06/16 06:02:54;;;;;;;11.38;9.35;;;;;;;30.32;43.95;100552.56;2087800;85;33069;-62
2021/06/16 06:05:57;;;;;;;13.20;10.10;;;;;;;30.63;43.49;100554.09;2087563;85;29493;-62
2021/06/16 06:08:59;;;;;;;13.45;11.48;;;;;;;30.90;43.24;100553.72;2087966;85;27490;-61
2021/06/16 06:12:03;;;;;;;15.53;10.95;;;;;;;31.00;42.45;100562.20;2087864;85;28580;-62
2021/06/16 06:15:07;;;;;;;15.80;12.53;;;;;;;31.10;42.58;100567.36;2087970;85;31092;-63
2021/06/16 06:18:09;;;;;;;;;;;;;;;31.29;41.60;100565.75;2090342;85;32967;-62
2021/06/16 06:21:12;;;;;;;15.63;12.30;;;;;;;31.48;40.68;100564.98;2087862;85;29403;-62
2021/06/16 06:24:15;;;;;;;17.67;12.28;;;;;;;31.72;41.12;100572.40;2083025;85;27468;-62
2021/06/16 06:27:21;;;;;;;17.33;13.43;;;;;;;31.98;40.48;100571.59;2047239;87;28838;-63
2021/06/16 06:30:26;;;;;;;15.70;13.78;;;;;;;32.05;39.44;100581.30;2052731;85;31114;-63
2021/06/16 06:33:31;;;;;;;15.38;12.28;;;;;;;32.23;39.04;100579.30;2052566;86;32984;-62
2021/06/16 06:36:34;;;;;;;15.08;12.88;;;;;;;32.41;39.43;100573.13;2052580;86;30016;-62
2021/06/16 06:39:37;;;;;;;16.35;13.62;;;;;;;32.48;38.90;100575.89;2052898;86;27718;-63
2021/06/16 06:42:41;;;;;;;16.75;12.25;;;;;;;32.19;38.33;100575.23;2046946;86;28746;-63
2021/06/16 06:45:45;;;;;;;15.70;13.20;;;;;;;31.79;38.72;100580.20;2091094;85;31099;-64
2021/06/16 06:48:47;;;;;;;14.70;12.60;;;;;;;31.47;38.31;100573.47;2091298;85;33144;-62
2021/06/16 06:51:50;;;;;;;23.87;12.95;;;;;;;31.00;38.92;100580.18;2052589;86;29476;-62
2021/06/16 06:55:06;;;;;;;17.10;13.50;;;;;;;30.73;39.01;100581.38;2047070;87;27509;-62
2021/06/16 06:58:10;;;;;;;16.82;14.07;;;;;;;30.70;39.34;100576.25;2090508;85;27441;-62
2021/06/16 07:01:14;;;;;;;17.60;13.38;;;;;;;30.63;39.34;100581.74;2091183;85;31095;-63
2021/06/16 07:04:17;;;;;;;20.27;14.05;;;;;;;30.46;39.57;100576.48;2091176;85;33031;-63
2021/06/16 07:07:19;;;;;;;16.52;12.58;;;;;;;30.39;39.60;100571.45;2047091;87;29458;-63
2021/06/16 07:10:22;;;;;;;22.27;13.83;;;;;;;30.36;39.76;100574.61;2091318;85;27484;-62
2021/06/16 07:13:24;;;;;;;19.35;13.62;;;;;;;30.40;39.79;100577.82;2047078;87;28780;-62
2021/06/16 07:16:26;;;;;;;17.23;12.65;;;;;;;30.31;39.84;100579.36;2091166;85;31160;-61
2021/06/16 07:19:29;;;;;;;15.53;11.48;;;;;;;30.71;40.23;100572.44;2091270;85;33040;-60
2021/06/16 07:22:31;;;;;;;19.55;14.45;;;;;;;31.28;40.28;100573.19;2091176;85;29401;-63
2021/06/16 07:25:33;;;;;;;16.20;12.25;;;;;;;31.44;38.89;100570.59;2098209;84;27590;-62
2021/06/16 07:28:36;;;;;;;16.85;12.68;;;;;;;31.32;39.23;100570.34;2106653;84;28817;-62
2021/06/16 07:31:38;;;;;;;16.07;12.70;;;;;;;31.50;38.71;100573.06;2106741;84;31059;-62
2021/06/16 07:34:40;;;;;;;19.10;14.13;;;;;;;31.48;38.59;100567.74;2064794;86;33037;-61
2021/06/16 07:37:43;;;;;;;17.52;11.93;;;;;;;31.51;38.54;100574.77;2106665;84;29403;-61
2021/06/16 07:40:45;;;;;;;15.77;12.73;;;;;;;31.70;38.59;100575.03;2091396;85;27469;-62
2021/06/16 07:43:49;;;;;;;15.68;12.65;;;;;;;32.01;38.69;100567.56;2064810;86;28722;-63
2021/06/16 07:46:51;;;;;;;17.37;13.22;;;;;;;32.49;37.71;100567.05;2106862;84;31098;-62
2021/06/16 07:49:53;;;;;;;15.58;12.93;;;;;;;32.57;37.73;100565.42;2106349;84;33040;-62
2021/06/16 07:52:55;;;;;;;17.90;12.78;;;;;;;32.62;37.20;100568.93;2091372;84;29461;-61
2021/06/16 07:55:57;;;;;;;18.90;12.68;;;;;;;32.62;37.04;100571.19;2065107;86;27474;-61
2021/06/16 07:58:59;;;;;;;17.12;13.50;;;;;;;32.43;37.09;100568.77;2106749;84;28737;-61
2021/06/16 08:02:03;;;;;;;17.40;11.95;;;;;;;32.26;37.28;100573.88;2106764;84;31085;-62
2021/06/16 08:05:07;;;;;;;15.72;12.98;;;;;;;32.31;37.69;100573.23;2101173;84;33042;-62
2021/06/16 08:08:09;;;;;;;;;;;;;;;32.37;36.81;100580.16;2093865;85;29365;-61
2021/06/16 08:11:11;;;;;;;16.25;12.95;;;;;;;32.49;37.19;100577.59;2091460;84;27715;-62
2021/06/16 08:14:13;;;;;;;15.32;12.03;;;;;;;32.66;37.35;100572.98;2091354;85;28270;-61
2021/06/16 08:17:16;;;;;;;15.30;11.80;;;;;;;32.72;37.10;100574.36;2091308;85;31101;-62
2021/06/16 08:20:19;;;;;;;15.78;11.53;;;;;;;32.77;36.39;100573.70;2038530;86;33034;-62
2021/06/16 08:23:21;;;;;;;14.80;12.33;;;;;;;32.94;36.46;100576.91;2106995;84;29409;-61
2021/06/16 08:26:24;;;;;;;14.63;11.83;;;;;;;33.13;36.00;100570.95;2062398;86;27875;-62
2021/06/16 08:29:27;;;;;;;15.28;11.43;;;;;;;33.25;36.15;100572.52;2088074;85;28991;-61
2021/06/16 08:32:30;;;;;;;16.30;12.10;;;;;;;33.36;35.58;100573.79;2061682;86;31099;-61
2021/06/16 08:35:32;;;;;;;15.78;10.55;;;;;;;33.20;35.21;100579.26;2087945;84;33043;-63
2021/06/16 08:38:34;;;;;;;19.15;12.63;;;;;;;33.24;35.49;100568.03;2087934;85;29403;-63
2021/06/16 08:41:38;;;;;;;17.12;11.20;;;;;;;33.44;35.30;100573.52;2088005;85;27476;-62
2021/06/16 08:44:40;;;;;;;16.37;12.40;;;;;;;33.09;35.08;100573.88;2088034;85;28703;-62
2021/06/16 08:47:44;;;;;;;15.63;11.30;;;;;;;32.74;35.17;100572.77;2087916;85;31082;-61
2021/06/16 08:50:47;;;;;;;16.27;13.08;;;;;;;32.62;35.63;100571.19;2094690;84;33118;-63
2021/06/16 08:53:52;;;;;;;14.87;11.95;;;;;;;32.60;35.70;100569.16;2066854;86;29465;-62
2021/06/16 08:56:53;;;;;;;16.20;11.40;;;;;;;32.58;35.52;100569.39;2087658;84;27493;-63
2021/06/16 08:59:55;;;;;;;16.17;12.07;;;;;;;32.64;35.85;100569.05;2087934;85;28786;-62
2021/06/16 09:02:57;;;;;;;15.88;10.98;;;;;;;32.85;35.46;100564.32;2087872;85;31146;-62
2021/06/16 09:06:09;;;;;;;19.17;11.45;;;;;;;32.93;34.99;100568.81;2061636;86;33004;-61
2021/06/16 09:09:14;;;;;;;11.57;9.98;;;;;;;32.79;34.72;100563.23;2088079;84;29407;-61
2021/06/16 09:12:22;;;;;;;16.23;11.25;;;;;;;32.74;35.10;100560.28;2087970;85;27446;-62
2021/06/16 09:15:29;;;;;;;14.38;10.93;;;;;;;32.83;34.86;100563.72;2085971;84;28738;-62
2021/06/16 09:18:43;;;;;;;12.37;9.90;;;;;;;32.76;35.16;100561.45;2087726;85;33313;-61
2021/06/16 09:21:45;;;;;;;;;;;;;;;32.72;34.84;100565.20;2090363;85;33031;-61
2021/06/16 09:24:53;;;;;;;12.73;9.48;;;;;;;32.70;34.83;100561.23;2087075;85;53702;-61
2021/06/16 09:27:55;;;;;;;13.05;10.28;;;;;;;32.71;34.91;100568.48;2052433;86;27679;-61
2021/06/16 09:30:59;;;;;;;13.28;10.32;;;;;;;32.72;34.73;100563.80;2047237;87;28902;-61
2021/06/16 09:34:12;;;;;;;14.93;10.55;;;;;;;32.51;34.62;100564.38;2091371;85;31100;-62
2021/06/16 09:37:14;;;;;;;16.27;11.00;;;;;;;32.16;34.61;100564.57;2047102;87;33604;-62
2021/06/16 09:40:32;;;;;;;12.98;10.43;;;;;;;32.00;35.12;100569.14;2091266;85;29397;-62
2021/06/16 09:43:34;;;;;;;14.58;9.53;;;;;;;31.78;35.57;100561.88;2088761;85;27699;-61
2021/06/16 09:46:36;;;;;;;13.62;9.60;;;;;;;31.88;35.52;100566.14;2091284;84;28739;-63
2021/06/16 09:50:00;;;;;;;12.95;8.88;;;;;;;31.71;35.16;100573.46;2090929;84;31167;-62
2021/06/16 09:53:04;;;;;;;10.80;9.67;;;;;;;31.65;35.59;100568.20;2091434;85;33087;-62
2021/06/16 09:56:16;;;;;;;;;;;;;;;31.61;35.90;100561.36;2045139;85;29421;-63
2021/06/16 09:59:37;;;;;;;14.98;9.58;;;;;;;31.65;36.19;100564.05;2091351;85;27508;-61
2021/06/16 10:02:41;;;;;;;17.48;9.38;;;;;;;31.64;35.73;100555.95;2091346;85;28802;-62
2021/06/16 10:06:08;;;;;;;11.53;10.32;;;;;;;31.65;35.81;100559.89;2091353;85;34666;-62
2021/06/16 10:09:10;;;;;;;14.50;10.03;;;;;;;31.52;35.79;100561.25;2052709;86;33079;-61
2021/06/16 10:12:13;;;;;;;10.65;8.85;;;;;;;31.50;36.17;100551.78;2091257;85;29387;-62
2021/06/16 10:15:19;;;;;;;9.65;8.65;;;;;;;31.46;35.99;100549.61;2091545;85;27662;-62
2021/06/16 10:18:24;;;;;;;11.43;8.95;;;;;;;31.48;36.08;100551.12;2090914;85;28815;-62
2021/06/16 10:21:26;;;;;;;18.17;14.93;;;;;;;31.47;35.91;100560.50;2091212;85;31103;-63
2021/06/16 10:24:28;;;;;;;17.30;9.55;;;;;;;31.39;36.22;100548.75;2091174;85;32941;-63
2021/06/16 10:27:36;;;;;;;9.73;8.38;;;;;;;31.35;36.16;100555.25;2059288;85;29403;-62
2021/06/16 10:30:43;;;;;;;12.47;10.05;;;;;;;31.32;36.42;100548.73;2091346;84;27659;-61
2021/06/16 10:33:50;;;;;;;11.50;8.98;;;;;;;31.19;36.11;100546.22;2052741;86;28722;-61
2021/06/16 10:37:04;;;;;;;14.00;8.95;;;;;;;31.03;36.41;100549.30;2049104;86;31239;-61
2021/06/16 10:40:27;;;;;;;15.40;10.75;;;;;;;30.95;36.81;100549.50;2053065;85;32966;-61
2021/06/16 10:43:36;;;;;;;12.65;10.23;;;;;;;30.91;36.75;100549.90;2046819;87;29424;-61
2021/06/16 10:46:59;;;;;;;17.87;10.80;;;;;;;30.74;37.33;100548.02;2090949;85;27463;-61
2021/06/16 10:50:02;;;;;;;13.28;9.90;;;;;;;30.68;37.44;100548.81;2090500;85;28734;-61
2021/06/16 10:53:05;;;;;;;10.85;8.78;;;;;;;30.58;37.79;100546.95;2091193;85;31093;-61
2021/06/16 10:56:18;;;;;;;11.97;9.57;;;;;;;30.43;37.89;100542.36;2091433;85;33076;-61
2021/06/16 10:59:50;;;;;;;13.00;9.55;;;;;;;30.43;38.26;100545.13;2091224;85;29349;-61
2021/06/16 11:02:54;;;;;;;10.82;8.45;;;;;;;30.22;37.60;100546.00;2091856;84;27646;-61
2021/06/16 11:05:57;;;;;;;15.35;9.35;;;;;;;29.87;37.76;100545.87;2091246;84;28737;-61
2021/06/16 11:09:01;;;;;;;11.18;8.70;;;;;;;29.65;37.78;100545.02;2091196;85;31157;-61
2021/06/16 11:12:06;;;;;;;17.05;9.28;;;;;;;29.49;38.20;100548.36;2088790;84;34063;-61
2021/06/16 11:15:26;;;;;;;12.55;9.10;;;;;;;29.43;38.41;100538.11;2091193;84;29398;-61
2021/06/16 11:18:29;;;;;;;11.53;8.93;;;;;;;29.45;38.86;100540.16;2089511;85;27432;-61
2021/06/16 11:21:34;;;;;;;14.23;9.13;;;;;;;29.37;38.80;100531.98;2091231;84;28727;-61
2021/06/16 11:25:15;;;;;;;10.48;9.40;;;;;;;29.23;38.71;100539.20;2091188;85;31071;-61
2021/06/16 11:28:24;;;;;;;12.28;9.55;;;;;;;29.12;38.98;100533.69;2090897;85;33029;-60
2021/06/16 11:31:26;;;;;;;11.57;8.78;;;;;;;28.96;39.09;100531.98;2089292;85;29483;-61
2021/06/16 11:34:54;;;;;;;10.30;8.55;;;;;;;28.95;39.52;100521.49;2091453;85;27488;-61
2021/06/16 11:38:00;;;;;;;14.30;9.15;;;;;;;29.00;39.46;100522.28;2091379;84;28723;-61
2021/06/16 11:41:16;;;;;;;11.80;9.48;;;;;;;29.00;39.27;100523.66;2091225;85;31209;-61
2021/06/16 11:44:20;;;;;;;10.10;8.03;;;;;;;28.95;39.02;100520.62;2064358;85;33032;-61
2021/06/16 11:47:22;;;;;;;14.10;8.98;;;;;;;28.86;39.42;100511.59;2091368;85;29448;-61
2021/06/16 11:50:33;;;;;;;12.90;9.00;;;;;;;28.91;39.64;100516.52;2091477;84;27460;-61
2021/06/16 11:53:38;;;;;;;11.22;8.38;;;;;;;28.87;39.87;100519.36;2091388;85;28719;-60
2021/06/16 11:56:41;;;;;;;11.03;8.08;;;;;;;28.83;39.72;100506.45;2090930;84;31264;-61
2021/06/16 11:59:47;;;;;;;10.80;7.90;;;;;;;28.81;40.15;100500.27;2091322;84;33037;-61
2021/06/16 12:02:49;;;;;;;11.75;8.53;;;;;;;28.80;39.99;100501.31;2091344;85;29392;-61
2021/06/16 12:06:04;;;;;;;11.95;8.80;;;;;;;28.79;39.68;100503.77;2091399;85;27457;-61
2021/06/16 12:09:07;;;;;;;9.33;8.25;;;;;;;28.74;39.68;100504.32;2064773;85;28741;-61
2021/06/16 12:12:10;;;;;;;14.45;8.50;;;;;;;28.58;39.81;100498.47;2091307;85;31134;-61
2021/06/16 12:15:22;;;;;;;9.15;8.13;;;;;;;28.42;39.99;100495.89;2091315;85;33075;-61
2021/06/16 12:18:29;;;;;;;13.25;8.15;;;;;;;28.37;39.99;100492.34;2091446;85;29314;-61
2021/06/16 12:21:32;;;;;;;10.93;8.93;;;;;;;28.41;40.23;100481.78;2091430;85;27487;-62
2021/06/16 12:24:41;;;;;;;13.25;8.88;;;;;;;28.44;39.95;100475.36;2091170;85;28732;-61
2021/06/16 12:27:43;;;;;;;12.05;8.93;;;;;;;28.46;40.23;100472.44;2101666;84;31104;-62
2021/06/16 12:30:46;;;;;;;12.45;8.93;;;;;;;28.52;39.82;100482.67;2091288;85;33162;-61
2021/06/16 12:34:02;;;;;;;10.25;8.93;;;;;;;28.59;39.81;100477.25;2091338;85;29402;-62
2021/06/16 12:37:15;;;;;;;14.75;9.28;;;;;;;28.69;39.75;100470.08;2065035;85;27803;-61
2021/06/16 12:40:30;;;;;;;15.20;9.55;;;;;;;28.74;39.54;100468.48;2091196;84;30498;-62
2021/06/16 12:43:32;;;;;;;15.15;8.58;;;;;;;28.78;39.43;100464.84;2087289;85;31190;-60
2021/06/16 12:46:59;;;;;;;13.75;9.08;;;;;;;28.78;39.50;100459.32;2106722;84;32953;-62
2021/06/16 12:50:02;;;;;;;12.82;8.70;;;;;;;28.78;39.66;100456.56;2065552;85;29036;-62
2021/06/16 12:53:19;;;;;;;13.35;8.30;;;;;;;28.70;39.72;100460.25;2091183;85;27453;-62
2021/06/16 12:56:21;;;;;;;13.18;8.95;;;;;;;28.60;39.75;100461.92;2078271;84;28788;-61
2021/06/16 12:59:39;;;;;;;11.10;8.30;;;;;;;28.45;39.68;100448.13;2091294;85;31028;-61
2021/06/16 13:02:42;;;;;;;12.18;9.55;;;;;;;28.42;39.91;100451.80;2088555;85;32920;-61
2021/06/16 13:06:03;;;;;;;12.63;8.05;;;;;;;28.35;39.77;100451.17;2106711;84;29566;-60
2021/06/16 13:09:05;;;;;;;9.25;8.20;;;;;;;28.25;39.76;100448.36;2106832;84;27476;-65
2021/06/16 13:12:09;;;;;;;10.90;7.80;;;;;;;28.21;39.91;100442.38;2106738;84;29360;-60
2021/06/16 13:15:12;;;;;;;11.20;9.27;;;;;;;28.22;39.89;100437.71;2091486;85;31007;-61
2021/06/16 13:18:22;;;;;;;15.58;9.28;;;;;;;28.22;40.08;100434.95;2106952;84;33024;-61
2021/06/16 13:21:24;;;;;;;13.65;9.48;;;;;;;28.28;40.16;100434.21;2106750;84;29389;-61
2021/06/16 13:24:27;;;;;;;10.95;8.58;;;;;;;28.26;39.74;100438.55;2106618;84;27484;-61
2021/06/16 13:27:52;;;;;;;11.90;7.92;;;;;;;28.22;39.86;100422.05;2098353;84;28928;-62
2021/06/16 13:30:59;;;;;;;12.95;8.78;;;;;;;28.22;40.04;100428.07;2090679;85;30994;-61
2021/06/16 13:34:13;;;;;;;12.95;8.90;;;;;;;28.23;39.90;100424.27;2091236;85;33035;-61
2021/06/16 13:37:15;;;;;;;9.53;8.03;;;;;;;28.19;40.04;100421.05;2091296;85;29544;-61
2021/06/16 13:40:19;;;;;;;18.95;8.90;;;;;;;28.20;40.25;100414.00;2088979;84;27726;-61
2021/06/16 13:43:22;;;;;;;9.33;8.10;;;;;;;28.18;40.21;100417.45;2091352;85;28723;-61
2021/06/16 13:46:27;;;;;;;17.37;8.45;;;;;;;28.15;40.31;100423.34;2091236;85;31166;-61
2021/06/16 13:49:29;;;;;;;13.05;8.48;;;;;;;28.15;40.40;100419.20;2091225;85;33044;-61
2021/06/16 13:52:31;;;;;;;12.20;8.98;;;;;;;28.12;40.27;100419.58;2090981;85;29473;-61
2021/06/16 13:55:33;;;;;;;9.90;7.87;;;;;;;28.09;40.27;100421.83;2091359;85;27657;-60
2021/06/16 13:58:35;;;;;;;13.03;8.68;;;;;;;28.13;40.20;100418.53;2091272;84;28787;-61
2021/06/16 14:01:39;;;;;;;12.35;8.25;;;;;;;28.17;39.91;100411.61;2090920;84;28754;-63
2021/06/16 14:04:42;;;;;;;13.88;8.25;;;;;;;28.17;39.63;100421.25;2091191;85;33057;-62
2021/06/16 14:07:44;;;;;;;8.70;7.83;;;;;;;28.09;39.46;100417.70;2091270;84;29405;-61